createdAt,value
2022-09-01T00:02:54.387Z,16.96
2022-09-01T00:08:18.078Z,16.80
2022-09-01T00:13:39.632Z,16.83
2022-09-01T00:19:01.238Z,17.02
2022-09-01T00:24:26.486Z,17.03
2022-09-01T00:29:47.079Z,17.12
2022-09-01T00:35:08.845Z,17.09
2022-09-01T00:40:30.064Z,17.01
2022-09-01T00:45:51.993Z,16.96
2022-09-01T00:51:13.543Z,16.92
2022-09-01T00:56:37.720Z,16.94
2022-09-01T01:01:59.521Z,16.94
2022-09-01T01:07:23.060Z,16.86
2022-09-01T01:12:43.984Z,16.85
2022-09-01T01:18:05.149Z,16.82
2022-09-01T01:23:39.681Z,16.80
2022-09-01T01:29:02.327Z,16.80
2022-09-01T01:34:24.283Z,16.80
2022-09-01T01:39:49.162Z,16.74
2022-09-01T01:45:13.151Z,16.72
2022-09-01T01:50:38.048Z,16.68
2022-09-01T01:56:00.150Z,16.68
2022-09-01T02:01:28.873Z,16.71
2022-09-01T02:06:51.625Z,16.73
2022-09-01T02:12:15.017Z,16.72
2022-09-01T02:17:39.399Z,16.68
2022-09-01T02:23:09.372Z,16.63
2022-09-01T02:28:32.125Z,16.56
2022-09-01T02:33:54.515Z,16.48
2022-09-01T02:39:23.305Z,16.43
2022-09-01T02:44:44.181Z,16.36
2022-09-01T02:50:07.131Z,16.33
2022-09-01T02:55:28.105Z,16.28
2022-09-01T03:00:54.225Z,16.23
2022-09-01T03:06:18.517Z,16.18
2022-09-01T03:11:41.709Z,16.12
2022-09-01T03:17:03.016Z,16.05
2022-09-01T03:22:23.753Z,16.06
2022-09-01T03:27:45.725Z,16.05
2022-09-01T03:33:07.577Z,16.12
2022-09-01T03:38:29.622Z,16.20
2022-09-01T03:43:55.148Z,16.28
2022-09-01T03:49:25.000Z,16.32
2022-09-01T03:54:46.077Z,16.29
2022-09-01T04:00:11.546Z,16.32
2022-09-01T04:05:37.647Z,16.26
2022-09-01T04:11:02.964Z,16.24
2022-09-01T04:16:50.111Z,16.19
2022-09-01T04:22:17.648Z,16.05
2022-09-01T04:27:40.627Z,16.03
2022-09-01T04:33:01.742Z,16.00
2022-09-01T04:38:24.935Z,16.09
2022-09-01T04:43:47.738Z,16.11
2022-09-01T04:49:13.299Z,16.14
2022-09-01T04:54:37.196Z,16.09
2022-09-01T04:59:59.933Z,16.08
2022-09-01T05:05:23.415Z,16.08
2022-09-01T05:10:50.299Z,16.19
2022-09-01T05:16:25.870Z,16.22
2022-09-01T05:21:51.731Z,16.32
2022-09-01T05:27:12.515Z,16.39
2022-09-01T05:32:39.025Z,16.52
2022-09-01T05:38:00.000Z,16.66
2022-09-01T05:43:21.699Z,16.73
2022-09-01T05:48:44.628Z,16.77
2022-09-01T05:54:08.140Z,16.87
2022-09-01T05:59:33.630Z,16.78
2022-09-01T06:05:00.540Z,16.76
2022-09-01T06:10:27.181Z,16.67
2022-09-01T06:15:50.372Z,16.65
2022-09-01T06:21:17.158Z,16.65
2022-09-01T06:26:40.156Z,16.74
2022-09-01T06:32:02.544Z,16.73
2022-09-01T06:37:23.333Z,16.86
2022-09-01T06:42:51.126Z,16.83
2022-09-01T06:48:16.055Z,16.86
2022-09-01T06:53:37.380Z,16.99
2022-09-01T06:59:06.247Z,17.00
2022-09-01T07:04:31.668Z,17.13
2022-09-01T07:10:17.728Z,17.12
2022-09-01T07:21:41.944Z,17.14
2022-09-01T07:27:14.369Z,17.17
2022-09-01T07:32:44.005Z,17.28
2022-09-01T07:43:51.401Z,17.40
2022-09-01T07:49:34.704Z,17.47
2022-09-01T07:55:16.784Z,17.56
2022-09-01T08:00:40.029Z,17.61
2022-09-01T08:06:09.315Z,17.74
2022-09-01T08:22:57.399Z,18.30
2022-09-01T08:28:26.635Z,18.31
2022-09-01T08:33:50.024Z,18.49
2022-09-01T08:39:11.390Z,18.71
2022-09-01T08:44:51.845Z,18.55
2022-09-01T08:50:14.024Z,18.40
2022-09-01T08:55:58.510Z,18.31
2022-09-01T09:01:48.588Z,18.28
2022-09-01T09:07:36.295Z,18.50
2022-09-01T09:13:09.834Z,18.70
2022-09-01T09:19:00.838Z,18.73
2022-09-01T09:24:50.161Z,18.96
2022-09-01T09:30:15.808Z,18.88
2022-09-01T09:35:42.524Z,18.88
2022-09-01T09:41:25.663Z,18.87
2022-09-01T09:46:48.881Z,18.93
2022-09-01T09:52:09.915Z,18.99
2022-09-01T09:57:31.695Z,19.09
2022-09-01T10:02:56.026Z,19.18
2022-09-01T10:08:37.450Z,19.28
2022-09-01T10:13:58.335Z,19.37
2022-09-01T10:19:20.181Z,19.34
2022-09-01T10:24:44.716Z,19.17
2022-09-01T10:30:20.296Z,18.86
2022-09-01T10:35:48.490Z,18.71
2022-09-01T10:41:14.123Z,18.91
2022-09-01T10:46:40.732Z,19.19
2022-09-01T10:52:05.788Z,19.45
2022-09-01T10:57:55.818Z,19.59
2022-09-01T11:03:35.496Z,19.75
2022-09-01T11:09:04.659Z,19.94
2022-09-01T11:14:27.192Z,19.92
2022-09-01T11:19:55.681Z,19.69
2022-09-01T11:31:42.089Z,19.66
2022-09-01T11:37:03.378Z,19.88
2022-09-01T11:42:30.275Z,20.14
2022-09-01T11:47:56.678Z,20.24
2022-09-01T11:53:23.378Z,20.09
2022-09-01T11:58:44.795Z,19.80
2022-09-01T12:04:23.844Z,19.76
2022-09-01T12:09:48.172Z,19.84
2022-09-01T12:15:18.844Z,19.76
2022-09-01T12:20:41.505Z,19.82
2022-09-01T12:26:14.867Z,19.76
2022-09-01T12:31:36.392Z,19.93
2022-09-01T12:37:08.556Z,20.04
2022-09-01T12:42:39.535Z,19.90
2022-09-01T12:48:02.533Z,19.68
2022-09-01T12:53:25.812Z,19.64
2022-09-01T12:58:52.236Z,19.64
2022-09-01T13:04:26.135Z,19.51
2022-09-01T13:09:46.716Z,19.42
2022-09-01T13:15:08.949Z,19.31
2022-09-01T13:20:30.019Z,19.33
2022-09-01T13:25:51.732Z,19.33
2022-09-01T13:31:29.377Z,19.35
2022-09-01T13:36:52.688Z,19.37
2022-09-01T13:42:15.868Z,19.32
2022-09-01T13:48:15.313Z,19.27
2022-09-01T13:53:17.585Z,19.26
2022-09-01T13:58:38.703Z,19.19
2022-09-01T14:04:00.659Z,19.22
2022-09-01T14:09:22.020Z,19.25
2022-09-01T14:20:27.967Z,19.50
2022-09-01T14:25:51.750Z,19.48
2022-09-01T14:31:14.474Z,19.61
2022-09-01T14:36:35.276Z,19.58
2022-09-01T14:41:55.887Z,19.59
2022-09-01T14:47:19.137Z,19.68
2022-09-01T14:52:41.601Z,19.73
2022-09-01T14:58:02.255Z,19.73
2022-09-01T15:03:26.227Z,19.75
2022-09-01T15:08:47.911Z,19.65
2022-09-01T15:14:11.798Z,19.67
2022-09-01T15:19:32.992Z,19.62
2022-09-01T15:24:53.796Z,19.61
2022-09-01T15:30:17.028Z,19.59
2022-09-01T15:35:37.979Z,19.57
2022-09-01T15:41:01.777Z,19.53
2022-09-01T15:46:32.060Z,19.45
2022-09-01T15:51:56.611Z,19.40
2022-09-01T15:57:18.395Z,19.45
2022-09-01T16:02:39.458Z,19.55
2022-09-01T16:08:01.550Z,19.47
2022-09-01T16:13:25.800Z,19.41
2022-09-01T16:19:04.237Z,19.39
2022-09-01T16:24:25.465Z,19.33
2022-09-01T16:29:53.311Z,19.33
2022-09-01T16:35:15.912Z,19.27
2022-09-01T16:40:47.213Z,19.17
2022-09-01T16:46:19.551Z,18.93
2022-09-01T16:52:05.503Z,18.79
2022-09-01T16:57:26.052Z,18.72
2022-09-01T17:02:59.813Z,18.67
2022-09-01T17:08:26.597Z,18.56
2022-09-01T17:13:52.168Z,18.46
2022-09-01T17:19:19.572Z,18.29
2022-09-01T17:24:42.847Z,18.17
2022-09-01T17:30:07.234Z,18.01
2022-09-01T17:35:48.476Z,18.01
2022-09-01T17:41:12.096Z,18.00
2022-09-01T17:47:06.020Z,17.93
2022-09-01T17:52:52.636Z,17.78
2022-09-01T17:58:25.781Z,17.79
2022-09-01T18:04:11.693Z,17.68
2022-09-01T18:09:45.389Z,17.64
2022-09-01T18:15:09.892Z,17.51
2022-09-01T18:20:41.145Z,17.54
2022-09-01T18:26:09.355Z,17.49
2022-09-01T18:31:42.029Z,17.47
2022-09-01T18:37:27.941Z,17.49
2022-09-01T18:43:18.409Z,17.48
2022-09-01T18:49:21.147Z,17.44
2022-09-01T18:55:01.070Z,17.40
2022-09-01T19:00:45.671Z,17.36
2022-09-01T19:06:26.039Z,17.42
2022-09-01T19:11:58.507Z,17.48
2022-09-01T19:17:28.475Z,17.46
2022-09-01T19:23:06.164Z,17.49
2022-09-01T19:28:49.451Z,17.54
2022-09-01T19:34:12.372Z,17.64
2022-09-01T19:39:37.213Z,17.58
2022-09-01T19:44:58.145Z,17.59
2022-09-01T19:50:35.961Z,17.39
2022-09-01T19:56:10.626Z,17.17
2022-09-01T20:01:43.777Z,17.06
2022-09-01T20:07:12.744Z,17.06
2022-09-01T20:13:03.058Z,17.04
2022-09-01T20:18:29.746Z,17.01
2022-09-01T20:23:59.058Z,16.96
2022-09-01T20:29:46.121Z,16.99
2022-09-01T20:35:13.801Z,17.23
2022-09-01T20:40:40.250Z,17.37
2022-09-01T20:46:01.480Z,17.43
2022-09-01T20:51:36.070Z,17.42
2022-09-01T20:57:08.819Z,17.51
2022-09-01T21:02:49.064Z,17.57
2022-09-01T21:08:37.111Z,17.56
2022-09-01T21:14:16.099Z,17.39
2022-09-01T21:20:11.442Z,17.30
2022-09-01T21:25:32.172Z,17.27
2022-09-01T21:30:57.804Z,17.34
2022-09-01T21:36:18.881Z,17.44
2022-09-01T21:41:40.244Z,17.45
2022-09-01T21:47:01.542Z,17.39
2022-09-01T21:52:22.451Z,17.39
2022-09-01T21:57:43.410Z,17.41
2022-09-01T22:03:04.714Z,17.34
2022-09-01T22:08:26.101Z,17.29
2022-09-01T22:13:47.815Z,17.29
2022-09-01T22:19:08.675Z,17.21
2022-09-01T22:24:29.296Z,17.30
2022-09-01T22:29:52.135Z,17.29
2022-09-01T22:35:15.493Z,17.23
2022-09-01T22:40:42.592Z,17.19
2022-09-01T22:46:06.280Z,16.99
2022-09-01T22:51:27.746Z,16.88
2022-09-01T22:56:49.892Z,16.83
2022-09-01T23:02:11.052Z,16.81
2022-09-01T23:07:32.012Z,16.87
2022-09-01T23:12:52.729Z,16.92
2022-09-01T23:18:13.509Z,16.88
2022-09-01T23:23:35.199Z,16.88
2022-09-01T23:28:57.162Z,16.76
2022-09-01T23:34:18.039Z,16.60
2022-09-01T23:39:38.599Z,16.64
2022-09-01T23:44:59.173Z,16.62
2022-09-01T23:50:20.127Z,16.59
2022-09-01T23:55:45.210Z,16.46
